createdAt,value
2022-10-08T00:01:53.424Z,-11098.97
2022-10-08T00:04:59.558Z,-11089.69
2022-10-08T00:08:05.726Z,-11072.84
2022-10-08T00:11:16.666Z,-11068.91
2022-10-08T00:14:23.550Z,-11076.63
2022-10-08T00:17:29.919Z,-11081.84
2022-10-08T00:20:36.012Z,-11068.63
2022-10-08T00:23:42.419Z,-11074.69
2022-10-08T00:26:49.639Z,-11091.53
2022-10-08T00:29:55.635Z,-11091.66
2022-10-08T00:33:02.596Z,-11082.53
2022-10-08T00:36:10.391Z,-11081.84
2022-10-08T00:39:17.855Z,-11089.13
2022-10-08T00:42:26.222Z,-11082.69
2022-10-08T00:45:32.639Z,-11077.47
2022-10-08T00:48:38.747Z,-11069.75
2022-10-08T00:51:49.901Z,-11056.00
2022-10-08T00:54:55.942Z,-11068.06
2022-10-08T00:58:09.303Z,-11056.00
2022-10-08T01:01:15.751Z,-11052.63
2022-10-08T01:04:22.231Z,-11060.34
2022-10-08T01:07:33.580Z,-11066.66
2022-10-08T01:10:48.548Z,-11076.34
2022-10-08T01:14:02.483Z,-11078.47
2022-10-08T01:17:17.139Z,-11053.47
2022-10-08T01:20:37.337Z,-11060.34
2022-10-08T01:24:22.278Z,-11052.50
2022-10-08T01:27:34.399Z,-11052.50
2022-10-08T01:30:46.531Z,-11059.38
2022-10-08T01:33:58.292Z,-11047.03
2022-10-08T01:37:06.819Z,-11040.72
2022-10-08T01:40:19.279Z,-11047.31
2022-10-08T01:43:30.359Z,-11046.47
2022-10-08T01:46:41.156Z,-11046.47
2022-10-08T01:49:52.561Z,-11037.91
2022-10-08T01:53:03.207Z,-11037.78
2022-10-08T01:56:12.117Z,-11052.50
2022-10-08T01:59:24.184Z,-11043.66
2022-10-08T02:02:30.752Z,-11040.00
2022-10-08T02:05:40.658Z,-11044.22
2022-10-08T02:08:47.040Z,-11051.78
2022-10-08T02:11:53.587Z,-11064.84
2022-10-08T02:15:02.369Z,-11073.41
2022-10-08T02:18:13.856Z,-11060.34
2022-10-08T02:21:25.144Z,-11057.97
2022-10-08T02:24:38.175Z,-11054.31
2022-10-08T02:27:55.411Z,-11039.88
2022-10-08T02:31:10.323Z,-11043.94
2022-10-08T02:34:21.354Z,-11046.75
2022-10-08T02:37:32.910Z,-11052.06
2022-10-08T02:40:42.919Z,-11055.72
2022-10-08T02:43:52.213Z,-11048.56
2022-10-08T02:47:02.923Z,-11040.56
2022-10-08T02:50:13.461Z,-11026.81
2022-10-08T02:53:20.647Z,-11021.50
2022-10-08T02:56:32.526Z,-11031.03
2022-10-08T02:59:39.307Z,-11028.78
2022-10-08T03:02:53.641Z,-11023.03
2022-10-08T03:06:03.454Z,-11020.09
2022-10-08T03:09:12.232Z,-11017.56
2022-10-08T03:12:18.698Z,-11021.50
2022-10-08T03:15:25.515Z,-11027.81
2022-10-08T03:18:33.824Z,-11028.78
2022-10-08T03:21:42.690Z,-11040.84
2022-10-08T03:24:48.780Z,-11038.59
2022-10-08T03:27:55.156Z,-11043.38
2022-10-08T03:31:06.156Z,-11036.66
2022-10-08T03:34:13.884Z,-11029.06
2022-10-08T03:37:20.400Z,-11044.09
2022-10-08T03:40:26.454Z,-11045.34
2022-10-08T03:43:34.035Z,-11057.41
2022-10-08T03:46:40.674Z,-11052.34
2022-10-08T03:49:48.081Z,-11060.91
2022-10-08T03:52:54.100Z,-11057.97
2022-10-08T03:56:03.120Z,-11054.59
2022-10-08T03:59:09.585Z,-11050.97
2022-10-08T04:02:16.334Z,-11037.22
2022-10-08T04:05:24.263Z,-11028.66
2022-10-08T04:08:30.563Z,-11028.22
2022-10-08T04:11:36.881Z,-11039.16
2022-10-08T04:14:43.183Z,-11038.75
2022-10-08T04:17:49.205Z,-11021.78
2022-10-08T04:20:59.887Z,-11030.47
2022-10-08T04:24:06.316Z,-11023.31
2022-10-08T04:27:12.338Z,-11016.88
2022-10-08T04:30:18.936Z,-11013.22
2022-10-08T04:33:24.929Z,-11032.16
2022-10-08T04:36:33.562Z,-11021.22
2022-10-08T04:39:39.691Z,-11035.38
2022-10-08T04:42:46.009Z,-11033.41
2022-10-08T04:45:52.302Z,-11036.38
2022-10-08T04:48:58.510Z,-11041.00
2022-10-08T04:52:05.931Z,-11039.16
2022-10-08T04:55:12.090Z,-11019.25
2022-10-08T04:58:18.614Z,-11025.56
2022-10-08T05:01:26.033Z,-11023.75
2022-10-08T05:04:32.638Z,-11019.66
2022-10-08T05:07:40.479Z,-11052.63
2022-10-08T05:10:50.038Z,-11053.75
2022-10-08T05:13:57.725Z,-11070.19
2022-10-08T05:17:04.120Z,-11049.84
2022-10-08T05:20:10.905Z,-11066.66
2022-10-08T05:23:18.392Z,-11057.84
2022-10-08T05:26:46.498Z,-11067.22
2022-10-08T05:29:52.712Z,-11057.69
2022-10-08T05:32:58.938Z,-11053.19
2022-10-08T05:36:06.837Z,-11060.50
2022-10-08T05:39:14.595Z,-11075.38
2022-10-08T05:42:20.832Z,-11089.28
2022-10-08T05:45:27.298Z,-11103.75
2022-10-08T05:48:33.370Z,-11118.06
2022-10-08T05:51:39.651Z,-11115.25
2022-10-08T05:54:47.591Z,-11129.88
2022-10-08T05:57:53.804Z,-11137.44
2022-10-08T06:01:01.212Z,-11143.06
2022-10-08T06:04:09.097Z,-11144.47
2022-10-08T06:07:15.531Z,-11138.84
2022-10-08T06:10:23.279Z,-11136.88
2022-10-08T06:13:29.547Z,-11158.81
2022-10-08T06:16:36.358Z,-11163.03
2022-10-08T06:19:42.679Z,-11177.34
2022-10-08T06:22:49.404Z,-11170.75
2022-10-08T06:25:57.090Z,-11186.34
2022-10-08T06:29:03.179Z,-11187.91
2022-10-08T06:32:09.564Z,-11194.78
2022-10-08T06:35:15.632Z,-11193.81
2022-10-08T06:38:22.037Z,-11199.00
2022-10-08T06:41:33.404Z,-11202.25
2022-10-08T06:44:39.675Z,-11206.03
2022-10-08T06:47:45.793Z,-11212.94
2022-10-08T06:50:59.782Z,-11218.41
2022-10-08T06:54:08.312Z,-11218.13
2022-10-08T06:57:16.358Z,-11223.34
2022-10-08T07:00:22.135Z,-11237.69
2022-10-08T07:03:28.199Z,-11238.09
2022-10-08T07:06:34.692Z,-11240.22
2022-10-08T07:09:41.142Z,-11246.56
2022-10-08T07:12:48.898Z,-11259.22
2022-10-08T07:16:02.674Z,-11250.63
2022-10-08T07:19:09.232Z,-11266.41
2022-10-08T07:22:15.510Z,-11261.59
2022-10-08T07:25:21.830Z,-11267.94
2022-10-08T07:28:32.111Z,-11264.28
2022-10-08T07:31:39.427Z,-11270.75
2022-10-08T07:34:45.878Z,-11273.00
2022-10-08T07:37:52.323Z,-11273.16
2022-10-08T07:40:58.601Z,-11293.97
2022-10-08T07:44:07.152Z,-11293.28
2022-10-08T07:47:13.623Z,-11307.78
2022-10-08T07:50:19.703Z,-11306.38
2022-10-08T07:53:25.764Z,-11311.00
2022-10-08T07:56:33.209Z,-11320.03
2022-10-08T07:59:40.886Z,-11327.91
2022-10-08T08:02:49.620Z,-11320.72
2022-10-08T08:06:02.077Z,-11321.44
2022-10-08T08:09:08.040Z,-11336.66
2022-10-08T08:12:14.408Z,-11345.38
2022-10-08T08:15:22.036Z,-11337.06
2022-10-08T08:18:30.673Z,-11345.53
2022-10-08T08:21:39.233Z,-11356.38
2022-10-08T08:24:45.474Z,-11356.78
2022-10-08T08:27:51.860Z,-11375.09
2022-10-08T08:31:08.416Z,-11377.50
2022-10-08T08:34:16.774Z,-11376.66
2022-10-08T08:37:22.865Z,-11385.66
2022-10-08T08:40:29.330Z,-11397.66
2022-10-08T08:43:35.695Z,-11398.34
2022-10-08T08:46:47.750Z,-11393.97
2022-10-08T08:49:56.467Z,-11390.75
2022-10-08T08:53:03.850Z,-11410.63
2022-10-08T08:56:14.360Z,-11401.72
2022-10-08T08:59:29.493Z,-11404.84
2022-10-08T09:02:45.594Z,-11407.22
2022-10-08T09:05:56.823Z,-11416.09
2022-10-08T09:09:09.351Z,-11444.31
2022-10-08T09:12:21.145Z,-11442.34
2022-10-08T09:15:34.063Z,-11446.56
2022-10-08T09:18:49.121Z,-11437.81
2022-10-08T09:21:55.442Z,-11448.81
2022-10-08T09:25:05.179Z,-11453.03
2022-10-08T09:28:11.595Z,-11449.38
2022-10-08T09:31:26.605Z,-11449.81
2022-10-08T09:34:35.127Z,-11440.34
2022-10-08T09:37:41.453Z,-11468.28
2022-10-08T09:41:01.602Z,-11453.75
2022-10-08T09:44:19.816Z,-11478.44
2022-10-08T09:47:28.166Z,-11488.88
2022-10-08T09:50:38.271Z,-11479.28
2022-10-08T09:53:47.040Z,-11461.38
2022-10-08T09:56:56.068Z,-11471.37
2022-10-08T10:00:05.923Z,-11481.97
2022-10-08T10:03:18.752Z,-11485.34
2022-10-08T10:06:33.387Z,-11490.56
2022-10-08T10:09:45.652Z,-11485.19
2022-10-08T10:12:56.387Z,-11495.34
2022-10-08T10:16:06.132Z,-11494.50
2022-10-08T10:19:18.681Z,-11498.44
2022-10-08T10:22:33.713Z,-11494.66
2022-10-08T10:25:48.140Z,-11509.31
2022-10-08T10:28:58.531Z,-11511.72
2022-10-08T10:32:14.407Z,-11505.78
2022-10-08T10:35:25.810Z,-11500.72
2022-10-08T10:38:42.958Z,-11495.50
2022-10-08T10:41:56.311Z,-11517.94
2022-10-08T10:45:05.465Z,-11512.13
2022-10-08T10:48:14.871Z,-11516.50
2022-10-08T10:51:36.598Z,-11530.91
2022-10-08T10:55:01.881Z,-11516.66
2022-10-08T10:58:23.475Z,-11528.38
2022-10-08T11:01:41.064Z,-11535.56
2022-10-08T11:05:01.726Z,-11528.94
2022-10-08T11:08:18.929Z,-11530.91
2022-10-08T11:11:36.787Z,-11540.22
2022-10-08T11:14:54.934Z,-11549.81
2022-10-08T11:18:21.799Z,-11561.38
2022-10-08T11:21:40.355Z,-11528.38
2022-10-08T11:25:07.210Z,-11533.16
2022-10-08T11:28:24.190Z,-11549.09
2022-10-08T11:31:40.563Z,-11566.75
2022-10-08T11:34:53.280Z,-11550.66
2022-10-08T11:38:08.140Z,-11555.19
2022-10-08T11:41:21.211Z,-11537.97
2022-10-08T11:44:30.371Z,-11555.47
2022-10-08T11:47:47.926Z,-11575.91
2022-10-08T11:50:54.314Z,-11566.19
2022-10-08T11:54:14.740Z,-11555.75
2022-10-08T11:57:24.923Z,-11548.69
2022-10-08T12:00:40.395Z,-11541.91
2022-10-08T12:04:02.551Z,-11574.09
2022-10-08T12:07:21.992Z,-11552.50
2022-10-08T12:10:34.245Z,-11566.75
2022-10-08T12:13:40.548Z,-11540.50
2022-10-08T12:17:12.538Z,-11552.78
2022-10-08T12:20:21.422Z,-11549.53
2022-10-08T12:23:40.295Z,-11563.06
2022-10-08T12:27:19.866Z,-11565.75
2022-10-08T12:30:49.639Z,-11551.09
2022-10-08T12:33:59.803Z,-11567.59
2022-10-08T12:37:16.536Z,-11571.28
2022-10-08T12:40:36.022Z,-11567.31
2022-10-08T12:43:49.455Z,-11553.06
2022-10-08T12:47:06.030Z,-11576.47
2022-10-08T12:50:38.057Z,-11570.84
2022-10-08T12:53:46.262Z,-11556.31
2022-10-08T12:56:53.720Z,-11569.56
2022-10-08T13:00:01.965Z,-11569.00
2022-10-08T13:03:15.219Z,-11566.31
2022-10-08T13:06:33.716Z,-11584.94
2022-10-08T13:09:40.335Z,-11580.56
2022-10-08T13:13:00.254Z,-11579.31
2022-10-08T13:16:08.932Z,-11588.22
2022-10-08T13:19:19.731Z,-11574.66
2022-10-08T13:22:28.014Z,-11580.16
2022-10-08T13:25:41.042Z,-11582.00
2022-10-08T13:28:59.889Z,-11583.25
2022-10-08T13:32:19.791Z,-11573.53
2022-10-08T13:35:26.268Z,-11562.22
2022-10-08T13:38:37.184Z,-11564.78
2022-10-08T13:41:52.474Z,-11547.00
2022-10-08T13:44:59.995Z,-11562.09
2022-10-08T13:48:11.175Z,-11582.28
2022-10-08T13:51:17.252Z,-11540.63
2022-10-08T13:54:26.563Z,-11587.50
2022-10-08T13:57:32.732Z,-11553.91
2022-10-08T14:00:40.218Z,-11548.53
2022-10-08T14:03:46.553Z,-11570.56
2022-10-08T14:06:56.783Z,-11571.84
2022-10-08T14:10:04.990Z,-11582.00
2022-10-08T14:13:13.863Z,-11578.88
2022-10-08T14:16:20.153Z,-11581.28
2022-10-08T14:19:26.250Z,-11540.06
2022-10-08T14:22:38.852Z,-11552.34
2022-10-08T14:25:47.758Z,-11526.53
2022-10-08T14:28:53.567Z,-11537.41
2022-10-08T14:32:00.105Z,-11521.31
2022-10-08T14:35:07.611Z,-11531.59
2022-10-08T14:38:13.972Z,-11534.28
2022-10-08T14:41:21.857Z,-11518.78
2022-10-08T14:44:27.838Z,-11545.16
2022-10-08T14:47:34.212Z,-11537.13
2022-10-08T14:50:40.346Z,-11560.25
2022-10-08T14:53:46.816Z,-11580.16
2022-10-08T14:56:54.338Z,-11564.06
2022-10-08T15:00:00.681Z,-11501.41
2022-10-08T15:03:06.987Z,-11472.50
2022-10-08T15:06:13.380Z,-11457.84
2022-10-08T15:09:19.686Z,-11460.09
2022-10-08T15:12:27.199Z,-11437.25
2022-10-08T15:15:32.960Z,-11428.25
2022-10-08T15:18:39.144Z,-11435.00
2022-10-08T15:21:45.323Z,-11415.81
2022-10-08T15:24:51.428Z,-11412.44
2022-10-08T15:27:59.160Z,-11397.22
2022-10-08T15:31:08.148Z,-11387.34
2022-10-08T15:34:17.763Z,-11386.78
2022-10-08T15:37:23.987Z,-11379.75
2022-10-08T15:40:31.804Z,-11392.16
2022-10-08T15:43:39.559Z,-11394.69
2022-10-08T15:46:45.973Z,-11392.56
2022-10-08T15:49:51.991Z,-11379.47
2022-10-08T15:52:58.051Z,-11365.09
2022-10-08T15:56:05.310Z,-11352.84
2022-10-08T15:59:12.790Z,-11354.38
2022-10-08T16:02:18.935Z,-11370.16
2022-10-08T16:05:25.048Z,-11366.50
2022-10-08T16:08:32.421Z,-11361.28
2022-10-08T16:11:39.162Z,-11344.66
2022-10-08T16:14:46.759Z,-11333.41
2022-10-08T16:17:52.742Z,-11325.38
2022-10-08T16:21:02.458Z,-11318.63
2022-10-08T16:24:08.860Z,-11313.13
2022-10-08T16:27:15.069Z,-11304.81
2022-10-08T16:30:22.891Z,-11305.66
2022-10-08T16:33:29.609Z,-11308.75
2022-10-08T16:36:37.453Z,-11309.47
2022-10-08T16:39:43.671Z,-11303.41
2022-10-08T16:42:49.735Z,-11309.47
2022-10-08T16:45:57.458Z,-11306.09
2022-10-08T16:49:05.999Z,-11299.34
2022-10-08T16:52:12.165Z,-11299.19
2022-10-08T16:55:18.544Z,-11289.63
2022-10-08T16:58:24.613Z,-11287.91
2022-10-08T17:01:33.982Z,-11290.47
2022-10-08T17:04:40.110Z,-11282.28
2022-10-08T17:07:46.302Z,-11280.03
2022-10-08T17:10:52.545Z,-11282.28
2022-10-08T17:13:59.491Z,-11275.53
2022-10-08T17:17:07.329Z,-11273.56
2022-10-08T17:20:13.051Z,-11270.75
2022-10-08T17:23:19.383Z,-11269.34
2022-10-08T17:26:27.094Z,-11271.19
2022-10-08T17:29:33.452Z,-11253.59
2022-10-08T17:32:41.354Z,-11259.78
2022-10-08T17:35:47.709Z,-11251.91
2022-10-08T17:38:56.534Z,-11245.16
2022-10-08T17:42:06.980Z,-11241.47
2022-10-08T17:45:13.459Z,-11241.63
2022-10-08T17:48:21.191Z,-11249.94
2022-10-08T17:51:29.213Z,-11249.94
2022-10-08T17:54:35.555Z,-11246.97
2022-10-08T17:57:41.647Z,-11246.00
2022-10-08T18:00:48.105Z,-11241.06
2022-10-08T18:03:58.011Z,-11242.03
2022-10-08T18:07:04.190Z,-11240.06
2022-10-08T18:10:11.412Z,-11237.13
2022-10-08T18:13:17.511Z,-11233.31
2022-10-08T18:16:25.375Z,-11223.75
2022-10-08T18:19:33.201Z,-11211.81
2022-10-08T18:22:39.340Z,-11217.28
2022-10-08T18:25:46.521Z,-11217.84
2022-10-08T18:28:56.421Z,-11213.34
2022-10-08T18:32:02.734Z,-11214.91
2022-10-08T18:35:11.914Z,-11213.63
2022-10-08T18:38:18.142Z,-11219.81
2022-10-08T18:41:26.298Z,-11220.66
2022-10-08T18:44:32.412Z,-11217.84
2022-10-08T18:47:38.600Z,-11212.94
2022-10-08T18:50:46.393Z,-11219.25
2022-10-08T18:53:53.871Z,-11219.53
2022-10-08T18:57:00.444Z,-11216.72
2022-10-08T19:00:07.046Z,-11213.91
2022-10-08T19:03:13.160Z,-11204.63
2022-10-08T19:06:23.276Z,-11197.75
2022-10-08T19:09:29.631Z,-11198.03
2022-10-08T19:12:35.787Z,-11190.28
2022-10-08T19:15:42.606Z,-11201.81
2022-10-08T19:18:54.396Z,-11183.13
2022-10-08T19:22:02.117Z,-11200.41
2022-10-08T19:25:08.779Z,-11195.06
2022-10-08T19:28:14.774Z,-11195.63
2022-10-08T19:31:24.208Z,-11186.06
2022-10-08T19:34:30.520Z,-11194.78
2022-10-08T19:37:38.614Z,-11185.66
2022-10-08T19:40:44.732Z,-11180.03
2022-10-08T19:43:50.909Z,-11175.38
2022-10-08T19:46:57.063Z,-11174.41
2022-10-08T19:50:03.701Z,-11171.47
2022-10-08T19:53:11.180Z,-11179.31
2022-10-08T19:56:18.270Z,-11175.09
2022-10-08T19:59:24.437Z,-11169.06
2022-10-08T20:02:30.591Z,-11153.31
2022-10-08T20:05:36.684Z,-11149.09
2022-10-08T20:08:44.227Z,-11157.97
2022-10-08T20:11:50.289Z,-11164.56
2022-10-08T20:14:56.340Z,-11157.69
2022-10-08T20:18:02.812Z,-11148.69
2022-10-08T20:21:11.327Z,-11153.03
2022-10-08T20:24:19.927Z,-11158.81
2022-10-08T20:27:26.239Z,-11165.84
2022-10-08T20:30:32.607Z,-11167.81
2022-10-08T20:33:40.719Z,-11173.84
2022-10-08T20:36:47.810Z,-11175.38
2022-10-08T20:39:55.215Z,-11167.81
2022-10-08T20:43:01.568Z,-11166.25
2022-10-08T20:46:10.463Z,-11169.50
2022-10-08T20:49:16.388Z,-11161.91
2022-10-08T20:52:22.972Z,-11142.22
2022-10-08T20:55:30.732Z,-11133.38
2022-10-08T20:58:37.590Z,-11143.06
2022-10-08T21:01:43.926Z,-11135.19
2022-10-08T21:04:49.911Z,-11131.53
2022-10-08T21:07:56.232Z,-11137.59
2022-10-08T21:11:04.696Z,-11130.84
2022-10-08T21:14:11.765Z,-11133.50
2022-10-08T21:17:17.962Z,-11148.41
2022-10-08T21:20:23.754Z,-11131.69
2022-10-08T21:23:29.923Z,-11136.88
2022-10-08T21:26:39.067Z,-11139.84
2022-10-08T21:29:45.038Z,-11136.88
2022-10-08T21:32:51.375Z,-11146.16
2022-10-08T21:35:58.334Z,-11132.25
2022-10-08T21:39:06.772Z,-11132.53
2022-10-08T21:42:14.384Z,-11145.59
2022-10-08T21:45:20.282Z,-11126.34
2022-10-08T21:48:27.919Z,-11133.38
2022-10-08T21:51:34.952Z,-11133.94
2022-10-08T21:54:41.016Z,-11130.56
2022-10-08T21:57:48.671Z,-11111.47
2022-10-08T22:00:55.161Z,-11109.06
2022-10-08T22:04:02.987Z,-11125.38
2022-10-08T22:07:08.956Z,-11115.25
2022-10-08T22:10:15.391Z,-11113.28
2022-10-08T22:13:23.503Z,-11117.22
2022-10-08T22:16:29.913Z,-11127.63
2022-10-08T22:19:36.976Z,-11114.41
2022-10-08T22:22:43.333Z,-11112.59
2022-10-08T22:25:54.407Z,-11127.19
2022-10-08T22:29:02.384Z,-11118.75
2022-10-08T22:32:08.738Z,-11108.09
2022-10-08T22:35:15.262Z,-11105.16
2022-10-08T22:38:21.553Z,-11106.00
2022-10-08T22:41:29.770Z,-11119.47
2022-10-08T22:44:37.210Z,-11114.97
2022-10-08T22:47:43.151Z,-11106.28
2022-10-08T22:50:49.343Z,-11097.28
2022-10-08T22:53:56.050Z,-11100.09
2022-10-08T22:57:02.191Z,-11118.34
2022-10-08T23:00:11.677Z,-11123.13
2022-10-08T23:03:17.913Z,-11113.72
2022-10-08T23:06:25.298Z,-11121.56
2022-10-08T23:09:31.443Z,-11116.38
2022-10-08T23:12:37.487Z,-11122.97
2022-10-08T23:15:45.010Z,-11114.69
2022-10-08T23:18:55.756Z,-11107.81
2022-10-08T23:22:01.716Z,-11095.72
2022-10-08T23:25:08.815Z,-11083.09
2022-10-08T23:28:14.978Z,-11087.72
2022-10-08T23:31:24.035Z,-11086.59
2022-10-08T23:34:30.151Z,-11089.28
2022-10-08T23:37:36.375Z,-11085.19
2022-10-08T23:40:42.402Z,-11093.50
2022-10-08T23:43:51.551Z,-11085.19
2022-10-08T23:46:59.252Z,-11092.78
2022-10-08T23:50:05.590Z,-11104.31
2022-10-08T23:53:11.822Z,-11088.28
2022-10-08T23:56:18.545Z,-11097.56
2022-10-08T23:59:24.865Z,-11099.09
